sensor_id;sensor_type;location;lat;lon;timestamp;P1;durP1;ratioP1;P2;durP2;ratioP2
6475;SDS011;3271;51.910;5.840;2022-12-31T00:01:19;1.42;;;1.10;;
6475;SDS011;3271;51.910;5.840;2022-12-31T00:03:45;1.02;;;1.00;;
6475;SDS011;3271;51.910;5.840;2022-12-31T00:06:33;1.00;;;1.00;;
6475;SDS011;3271;51.910;5.840;2022-12-31T00:08:57;2.33;;;1.10;;
6475;SDS011;3271;51.910;5.840;2022-12-31T00:11:24;1.77;;;1.00;;
6475;SDS011;3271;51.910;5.840;2022-12-31T00:13:51;1.13;;;0.80;;
6475;SDS011;3271;51.910;5.840;2022-12-31T00:16:18;0.77;;;0.75;;
6475;SDS011;3271;51.910;5.840;2022-12-31T00:18:45;1.17;;;0.90;;
6475;SDS011;3271;51.910;5.840;2022-12-31T00:21:12;1.48;;;0.82;;
6475;SDS011;3271;51.910;5.840;2022-12-31T00:23:38;0.90;;;0.90;;
6475;SDS011;3271;51.910;5.840;2022-12-31T00:26:08;0.77;;;0.75;;
6475;SDS011;3271;51.910;5.840;2022-12-31T00:28:34;0.65;;;0.65;;
6475;SDS011;3271;51.910;5.840;2022-12-31T00:31:42;1.30;;;1.20;;
6475;SDS011;3271;51.910;5.840;2022-12-31T00:33:49;0.80;;;0.80;;
6475;SDS011;3271;51.910;5.840;2022-12-31T00:36:17;1.13;;;0.88;;
6475;SDS011;3271;51.910;5.840;2022-12-31T00:38:44;2.20;;;1.00;;
6475;SDS011;3271;51.910;5.840;2022-12-31T00:41:10;1.30;;;1.20;;
6475;SDS011;3271;51.910;5.840;2022-12-31T00:43:36;1.50;;;1.40;;
6475;SDS011;3271;51.910;5.840;2022-12-31T00:46:03;1.98;;;1.40;;
6475;SDS011;3271;51.910;5.840;2022-12-31T00:48:29;2.40;;;1.20;;
6475;SDS011;3271;51.910;5.840;2022-12-31T00:50:55;2.10;;;1.00;;
6475;SDS011;3271;51.910;5.840;2022-12-31T00:53:22;1.17;;;0.93;;
6475;SDS011;3271;51.910;5.840;2022-12-31T00:55:48;3.92;;;1.17;;
6475;SDS011;3271;51.910;5.840;2022-12-31T00:58:14;2.10;;;1.30;;
6475;SDS011;3271;51.910;5.840;2022-12-31T01:00:40;2.38;;;1.17;;
6475;SDS011;3271;51.910;5.840;2022-12-31T01:03:06;1.55;;;1.08;;
6475;SDS011;3271;51.910;5.840;2022-12-31T01:05:32;0.90;;;0.90;;
6475;SDS011;3271;51.910;5.840;2022-12-31T01:07:59;1.05;;;1.05;;
6475;SDS011;3271;51.910;5.840;2022-12-31T01:10:25;1.50;;;0.90;;
6475;SDS011;3271;51.910;5.840;2022-12-31T01:13:09;1.55;;;1.45;;
6475;SDS011;3271;51.910;5.840;2022-12-31T01:15:36;0.85;;;0.85;;
6475;SDS011;3271;51.910;5.840;2022-12-31T01:18:03;2.15;;;0.90;;
6475;SDS011;3271;51.910;5.840;2022-12-31T01:20:33;1.48;;;0.65;;
6475;SDS011;3271;51.910;5.840;2022-12-31T01:22:59;1.52;;;0.90;;
6475;SDS011;3271;51.910;5.840;2022-12-31T01:25:25;1.63;;;0.80;;
6475;SDS011;3271;51.910;5.840;2022-12-31T01:27:52;1.50;;;0.82;;
6475;SDS011;3271;51.910;5.840;2022-12-31T01:30:18;0.73;;;0.70;;
6475;SDS011;3271;51.910;5.840;2022-12-31T01:32:44;0.90;;;0.88;;
6475;SDS011;3271;51.910;5.840;2022-12-31T01:35:10;0.80;;;0.70;;
6475;SDS011;3271;51.910;5.840;2022-12-31T01:37:36;2.30;;;1.30;;
6475;SDS011;3271;51.910;5.840;2022-12-31T01:40:03;1.50;;;1.23;;
6475;SDS011;3271;51.910;5.840;2022-12-31T01:42:29;1.50;;;0.90;;
6475;SDS011;3271;51.910;5.840;2022-12-31T01:44:55;0.70;;;0.70;;
6475;SDS011;3271;51.910;5.840;2022-12-31T01:47:24;1.02;;;0.75;;
6475;SDS011;3271;51.910;5.840;2022-12-31T01:49:52;0.80;;;0.80;;
6475;SDS011;3271;51.910;5.840;2022-12-31T01:52:26;0.63;;;0.63;;
6475;SDS011;3271;51.910;5.840;2022-12-31T01:54:54;2.33;;;0.90;;
6475;SDS011;3271;51.910;5.840;2022-12-31T01:57:21;2.38;;;1.02;;
6475;SDS011;3271;51.910;5.840;2022-12-31T01:59:48;2.63;;;0.90;;
6475;SDS011;3271;51.910;5.840;2022-12-31T02:02:14;2.22;;;0.90;;
6475;SDS011;3271;51.910;5.840;2022-12-31T02:04:41;1.13;;;0.90;;
6475;SDS011;3271;51.910;5.840;2022-12-31T02:07:08;1.20;;;0.82;;
6475;SDS011;3271;51.910;5.840;2022-12-31T02:09:35;1.15;;;1.02;;
6475;SDS011;3271;51.910;5.840;2022-12-31T02:12:02;1.10;;;1.00;;
6475;SDS011;3271;51.910;5.840;2022-12-31T02:14:29;3.67;;;0.98;;
6475;SDS011;3271;51.910;5.840;2022-12-31T02:17:02;1.73;;;0.95;;
6475;SDS011;3271;51.910;5.840;2022-12-31T02:22:14;1.13;;;1.02;;
6475;SDS011;3271;51.910;5.840;2022-12-31T02:25:07;1.55;;;0.98;;
6475;SDS011;3271;51.910;5.840;2022-12-31T02:27:44;1.02;;;0.93;;
6475;SDS011;3271;51.910;5.840;2022-12-31T02:30:19;1.20;;;1.10;;
6475;SDS011;3271;51.910;5.840;2022-12-31T02:37:55;1.20;;;1.10;;
6475;SDS011;3271;51.910;5.840;2022-12-31T02:40:22;1.42;;;0.80;;
6475;SDS011;3271;51.910;5.840;2022-12-31T02:42:48;1.17;;;1.08;;
6475;SDS011;3271;51.910;5.840;2022-12-31T02:45:15;1.25;;;0.93;;
6475;SDS011;3271;51.910;5.840;2022-12-31T02:50:19;1.63;;;0.90;;
6475;SDS011;3271;51.910;5.840;2022-12-31T02:52:53;1.30;;;0.80;;
6475;SDS011;3271;51.910;5.840;2022-12-31T02:55:40;1.42;;;0.80;;
6475;SDS011;3271;51.910;5.840;2022-12-31T03:01:13;0.70;;;0.70;;
6475;SDS011;3271;51.910;5.840;2022-12-31T03:03:59;1.08;;;0.90;;
6475;SDS011;3271;51.910;5.840;2022-12-31T03:06:45;1.02;;;0.90;;
6475;SDS011;3271;51.910;5.840;2022-12-31T03:09:11;1.08;;;0.80;;
6475;SDS011;3271;51.910;5.840;2022-12-31T03:11:37;1.20;;;1.10;;
6475;SDS011;3271;51.910;5.840;2022-12-31T03:14:22;1.00;;;0.90;;
6475;SDS011;3271;51.910;5.840;2022-12-31T03:16:48;1.00;;;0.90;;
6475;SDS011;3271;51.910;5.840;2022-12-31T03:19:14;1.20;;;0.80;;
6475;SDS011;3271;51.910;5.840;2022-12-31T03:21:58;1.65;;;0.80;;
6475;SDS011;3271;51.910;5.840;2022-12-31T03:24:43;0.90;;;0.77;;
6475;SDS011;3271;51.910;5.840;2022-12-31T03:27:27;1.58;;;1.13;;
6475;SDS011;3271;51.910;5.840;2022-12-31T03:29:53;0.93;;;0.90;;
6475;SDS011;3271;51.910;5.840;2022-12-31T03:32:19;1.00;;;1.00;;
6475;SDS011;3271;51.910;5.840;2022-12-31T03:34:45;1.17;;;1.08;;
6475;SDS011;3271;51.910;5.840;2022-12-31T03:37:15;1.20;;;1.10;;
6475;SDS011;3271;51.910;5.840;2022-12-31T03:39:41;2.08;;;1.60;;
6475;SDS011;3271;51.910;5.840;2022-12-31T03:42:20;2.67;;;1.50;;
6475;SDS011;3271;51.910;5.840;2022-12-31T03:44:46;2.13;;;1.45;;
6475;SDS011;3271;51.910;5.840;2022-12-31T03:47:12;2.60;;;1.98;;
6475;SDS011;3271;51.910;5.840;2022-12-31T03:49:38;2.22;;;2.10;;
6475;SDS011;3271;51.910;5.840;2022-12-31T03:52:04;2.63;;;2.20;;
6475;SDS011;3271;51.910;5.840;2022-12-31T03:54:30;2.45;;;2.25;;
6475;SDS011;3271;51.910;5.840;2022-12-31T03:56:56;2.10;;;1.90;;
6475;SDS011;3271;51.910;5.840;2022-12-31T03:59:22;2.30;;;2.03;;
6475;SDS011;3271;51.910;5.840;2022-12-31T04:01:48;2.10;;;2.00;;
6475;SDS011;3271;51.910;5.840;2022-12-31T04:04:18;3.88;;;2.30;;
6475;SDS011;3271;51.910;5.840;2022-12-31T04:06:44;2.40;;;2.20;;
6475;SDS011;3271;51.910;5.840;2022-12-31T04:09:10;2.05;;;1.90;;
6475;SDS011;3271;51.910;5.840;2022-12-31T04:11:43;1.77;;;1.67;;
6475;SDS011;3271;51.910;5.840;2022-12-31T04:14:09;2.10;;;1.90;;
6475;SDS011;3271;51.910;5.840;2022-12-31T04:16:35;1.35;;;1.30;;
6475;SDS011;3271;51.910;5.840;2022-12-31T04:19:01;1.45;;;1.35;;
6475;SDS011;3271;51.910;5.840;2022-12-31T04:21:27;1.55;;;1.45;;
6475;SDS011;3271;51.910;5.840;2022-12-31T04:23:53;1.50;;;1.40;;
6475;SDS011;3271;51.910;5.840;2022-12-31T04:26:19;1.63;;;1.52;;
6475;SDS011;3271;51.910;5.840;2022-12-31T04:28:45;1.42;;;1.33;;
6475;SDS011;3271;51.910;5.840;2022-12-31T04:31:11;1.40;;;1.30;;
6475;SDS011;3271;51.910;5.840;2022-12-31T04:33:40;1.50;;;1.40;;
6475;SDS011;3271;51.910;5.840;2022-12-31T04:36:06;1.30;;;1.20;;
6475;SDS011;3271;51.910;5.840;2022-12-31T04:38:33;1.38;;;1.23;;
6475;SDS011;3271;51.910;5.840;2022-12-31T04:41:00;1.02;;;1.02;;
6475;SDS011;3271;51.910;5.840;2022-12-31T04:43:42;1.52;;;1.30;;
6475;SDS011;3271;51.910;5.840;2022-12-31T04:46:08;1.27;;;1.27;;
6475;SDS011;3271;51.910;5.840;2022-12-31T04:48:34;1.40;;;1.30;;
6475;SDS011;3271;51.910;5.840;2022-12-31T04:51:00;1.00;;;1.00;;
6475;SDS011;3271;51.910;5.840;2022-12-31T04:53:26;0.80;;;0.80;;
6475;SDS011;3271;51.910;5.840;2022-12-31T04:55:53;0.88;;;0.88;;
6475;SDS011;3271;51.910;5.840;2022-12-31T04:58:19;1.00;;;1.00;;
6475;SDS011;3271;51.910;5.840;2022-12-31T05:00:45;1.20;;;1.17;;
6475;SDS011;3271;51.910;5.840;2022-12-31T05:03:13;0.90;;;0.90;;
6475;SDS011;3271;51.910;5.840;2022-12-31T05:05:40;1.25;;;1.05;;
6475;SDS011;3271;51.910;5.840;2022-12-31T05:08:07;0.80;;;0.80;;
6475;SDS011;3271;51.910;5.840;2022-12-31T05:10:33;0.70;;;0.70;;
6475;SDS011;3271;51.910;5.840;2022-12-31T05:12:59;1.35;;;0.60;;
6475;SDS011;3271;51.910;5.840;2022-12-31T05:15:25;0.68;;;0.68;;
6475;SDS011;3271;51.910;5.840;2022-12-31T05:17:51;0.65;;;0.65;;
6475;SDS011;3271;51.910;5.840;2022-12-31T05:20:17;0.70;;;0.70;;
6475;SDS011;3271;51.910;5.840;2022-12-31T05:22:43;1.67;;;0.70;;
6475;SDS011;3271;51.910;5.840;2022-12-31T05:25:09;0.50;;;0.50;;
6475;SDS011;3271;51.910;5.840;2022-12-31T05:27:35;0.63;;;0.43;;
6475;SDS011;3271;51.910;5.840;2022-12-31T05:30:05;0.50;;;0.50;;
6475;SDS011;3271;51.910;5.840;2022-12-31T05:32:31;0.60;;;0.60;;
6475;SDS011;3271;51.910;5.840;2022-12-31T05:34:57;0.60;;;0.60;;
6475;SDS011;3271;51.910;5.840;2022-12-31T05:37:23;0.60;;;0.60;;
6475;SDS011;3271;51.910;5.840;2022-12-31T05:39:49;0.45;;;0.45;;
6475;SDS011;3271;51.910;5.840;2022-12-31T05:42:15;0.50;;;0.50;;
6475;SDS011;3271;51.910;5.840;2022-12-31T05:44:41;0.47;;;0.47;;
6475;SDS011;3271;51.910;5.840;2022-12-31T05:47:07;0.55;;;0.50;;
6475;SDS011;3271;51.910;5.840;2022-12-31T05:49:33;0.50;;;0.50;;
6475;SDS011;3271;51.910;5.840;2022-12-31T05:51:59;0.40;;;0.40;;
6475;SDS011;3271;51.910;5.840;2022-12-31T05:54:25;0.55;;;0.50;;
6475;SDS011;3271;51.910;5.840;2022-12-31T05:56:51;0.50;;;0.50;;
6475;SDS011;3271;51.910;5.840;2022-12-31T05:59:17;0.50;;;0.50;;
6475;SDS011;3271;51.910;5.840;2022-12-31T06:01:43;0.50;;;0.50;;
6475;SDS011;3271;51.910;5.840;2022-12-31T06:04:09;0.40;;;0.40;;
6475;SDS011;3271;51.910;5.840;2022-12-31T06:06:35;0.90;;;0.90;;
6475;SDS011;3271;51.910;5.840;2022-12-31T06:09:01;0.50;;;0.50;;
6475;SDS011;3271;51.910;5.840;2022-12-31T06:11:27;0.50;;;0.50;;
6475;SDS011;3271;51.910;5.840;2022-12-31T06:13:53;0.60;;;0.60;;
6475;SDS011;3271;51.910;5.840;2022-12-31T06:16:18;0.40;;;0.40;;
6475;SDS011;3271;51.910;5.840;2022-12-31T06:18:47;0.50;;;0.50;;
6475;SDS011;3271;51.910;5.840;2022-12-31T06:21:15;0.68;;;0.68;;
6475;SDS011;3271;51.910;5.840;2022-12-31T06:23:40;0.60;;;0.60;;
6475;SDS011;3271;51.910;5.840;2022-12-31T06:26:06;0.50;;;0.50;;
6475;SDS011;3271;51.910;5.840;2022-12-31T06:28:33;0.52;;;0.52;;
6475;SDS011;3271;51.910;5.840;2022-12-31T06:30:59;0.57;;;0.57;;
6475;SDS011;3271;51.910;5.840;2022-12-31T06:33:25;0.40;;;0.40;;
6475;SDS011;3271;51.910;5.840;2022-12-31T06:35:58;0.52;;;0.47;;
6475;SDS011;3271;51.910;5.840;2022-12-31T06:38:25;0.80;;;0.50;;
6475;SDS011;3271;51.910;5.840;2022-12-31T06:40:51;0.90;;;0.70;;
6475;SDS011;3271;51.910;5.840;2022-12-31T06:43:17;0.80;;;0.80;;
6475;SDS011;3271;51.910;5.840;2022-12-31T06:45:43;0.60;;;0.60;;
6475;SDS011;3271;51.910;5.840;2022-12-31T06:48:09;0.60;;;0.60;;
6475;SDS011;3271;51.910;5.840;2022-12-31T06:50:35;0.68;;;0.60;;
6475;SDS011;3271;51.910;5.840;2022-12-31T06:53:01;0.63;;;0.63;;
6475;SDS011;3271;51.910;5.840;2022-12-31T06:55:27;1.20;;;0.80;;
6475;SDS011;3271;51.910;5.840;2022-12-31T06:57:53;0.70;;;0.70;;
6475;SDS011;3271;51.910;5.840;2022-12-31T07:00:19;1.00;;;0.90;;
6475;SDS011;3271;51.910;5.840;2022-12-31T07:10:51;0.60;;;0.60;;
6475;SDS011;3271;51.910;5.840;2022-12-31T07:13:24;0.85;;;0.80;;
6475;SDS011;3271;51.910;5.840;2022-12-31T07:18:35;0.73;;;0.70;;
6475;SDS011;3271;51.910;5.840;2022-12-31T07:21:07;0.60;;;0.60;;
6475;SDS011;3271;51.910;5.840;2022-12-31T07:23:34;0.80;;;0.63;;
6475;SDS011;3271;51.910;5.840;2022-12-31T07:26:05;0.95;;;0.60;;
6475;SDS011;3271;51.910;5.840;2022-12-31T07:31:14;0.85;;;0.60;;
6475;SDS011;3271;51.910;5.840;2022-12-31T07:33:50;1.00;;;0.90;;
6475;SDS011;3271;51.910;5.840;2022-12-31T07:38:49;0.75;;;0.73;;
6475;SDS011;3271;51.910;5.840;2022-12-31T07:44:15;0.75;;;0.70;;
6475;SDS011;3271;51.910;5.840;2022-12-31T07:49:11;2.03;;;0.85;;
6475;SDS011;3271;51.910;5.840;2022-12-31T07:51:38;1.65;;;1.00;;
6475;SDS011;3271;51.910;5.840;2022-12-31T07:54:04;2.67;;;0.90;;
6475;SDS011;3271;51.910;5.840;2022-12-31T07:56:30;1.38;;;0.70;;
6475;SDS011;3271;51.910;5.840;2022-12-31T08:07:00;1.75;;;0.77;;
6475;SDS011;3271;51.910;5.840;2022-12-31T08:09:39;0.60;;;0.60;;
6475;SDS011;3271;51.910;5.840;2022-12-31T08:12:07;2.67;;;0.80;;
6475;SDS011;3271;51.910;5.840;2022-12-31T08:14:35;1.38;;;0.57;;
6475;SDS011;3271;51.910;5.840;2022-12-31T08:17:02;1.88;;;1.10;;
6475;SDS011;3271;51.910;5.840;2022-12-31T08:19:31;4.13;;;1.08;;
6475;SDS011;3271;51.910;5.840;2022-12-31T08:29:52;1.70;;;0.90;;
6475;SDS011;3271;51.910;5.840;2022-12-31T08:32:25;1.73;;;1.10;;
6475;SDS011;3271;51.910;5.840;2022-12-31T08:34:56;0.80;;;0.80;;
6475;SDS011;3271;51.910;5.840;2022-12-31T08:39:56;0.52;;;0.50;;
6475;SDS011;3271;51.910;5.840;2022-12-31T08:44:59;2.25;;;0.82;;
6475;SDS011;3271;51.910;5.840;2022-12-31T08:47:43;1.88;;;0.70;;
6475;SDS011;3271;51.910;5.840;2022-12-31T08:50:14;0.77;;;0.77;;
6475;SDS011;3271;51.910;5.840;2022-12-31T08:52:40;1.13;;;1.10;;
6475;SDS011;3271;51.910;5.840;2022-12-31T08:55:06;0.82;;;0.57;;
6475;SDS011;3271;51.910;5.840;2022-12-31T09:00:06;0.70;;;0.70;;
6475;SDS011;3271;51.910;5.840;2022-12-31T09:02:42;1.35;;;0.60;;
6475;SDS011;3271;51.910;5.840;2022-12-31T09:07:39;0.60;;;0.60;;
6475;SDS011;3271;51.910;5.840;2022-12-31T09:12:36;0.50;;;0.50;;
6475;SDS011;3271;51.910;5.840;2022-12-31T09:20:28;0.68;;;0.68;;
6475;SDS011;3271;51.910;5.840;2022-12-31T09:22:55;0.50;;;0.50;;
6475;SDS011;3271;51.910;5.840;2022-12-31T09:25:22;4.90;;;4.35;;
6475;SDS011;3271;51.910;5.840;2022-12-31T09:30:35;2.60;;;2.08;;
6475;SDS011;3271;51.910;5.840;2022-12-31T09:33:06;1.25;;;0.70;;
6475;SDS011;3271;51.910;5.840;2022-12-31T09:35:37;1.75;;;0.80;;
6475;SDS011;3271;51.910;5.840;2022-12-31T09:38:09;0.70;;;0.68;;
6475;SDS011;3271;51.910;5.840;2022-12-31T09:43:45;1.60;;;0.90;;
6475;SDS011;3271;51.910;5.840;2022-12-31T09:49:20;1.00;;;0.90;;
6475;SDS011;3271;51.910;5.840;2022-12-31T09:57:40;2.95;;;0.98;;
6475;SDS011;3271;51.910;5.840;2022-12-31T10:00:20;2.03;;;0.90;;
6475;SDS011;3271;51.910;5.840;2022-12-31T10:05:39;2.42;;;1.60;;
6475;SDS011;3271;51.910;5.840;2022-12-31T10:10:52;2.53;;;1.23;;
6475;SDS011;3271;51.910;5.840;2022-12-31T10:13:35;1.08;;;0.90;;
6475;SDS011;3271;51.910;5.840;2022-12-31T10:18:54;1.50;;;1.10;;
6475;SDS011;3271;51.910;5.840;2022-12-31T10:24:03;3.55;;;1.92;;
6475;SDS011;3271;51.910;5.840;2022-12-31T10:31:39;3.25;;;0.95;;
6475;SDS011;3271;51.910;5.840;2022-12-31T10:41:53;2.15;;;1.10;;
6475;SDS011;3271;51.910;5.840;2022-12-31T10:48:15;2.58;;;1.20;;
6475;SDS011;3271;51.910;5.840;2022-12-31T10:55:50;2.35;;;1.30;;
6475;SDS011;3271;51.910;5.840;2022-12-31T11:03:57;2.15;;;1.00;;
6475;SDS011;3271;51.910;5.840;2022-12-31T11:09:13;5.13;;;1.20;;
6475;SDS011;3271;51.910;5.840;2022-12-31T11:16:55;2.95;;;1.10;;
6475;SDS011;3271;51.910;5.840;2022-12-31T11:38:23;2.55;;;1.08;;
6475;SDS011;3271;51.910;5.840;2022-12-31T11:43:31;4.53;;;1.48;;
6475;SDS011;3271;51.910;5.840;2022-12-31T11:48:56;3.65;;;1.42;;
6475;SDS011;3271;51.910;5.840;2022-12-31T11:56:40;3.25;;;1.65;;
6475;SDS011;3271;51.910;5.840;2022-12-31T11:59:09;3.00;;;2.08;;
6475;SDS011;3271;51.910;5.840;2022-12-31T12:04:10;3.28;;;2.97;;
6475;SDS011;3271;51.910;5.840;2022-12-31T12:06:36;5.57;;;1.80;;
6475;SDS011;3271;51.910;5.840;2022-12-31T12:09:05;3.85;;;1.48;;
6475;SDS011;3271;51.910;5.840;2022-12-31T12:11:33;2.45;;;1.00;;
6475;SDS011;3271;51.910;5.840;2022-12-31T12:14:00;3.50;;;1.30;;
6475;SDS011;3271;51.910;5.840;2022-12-31T12:16:26;2.72;;;1.63;;
6475;SDS011;3271;51.910;5.840;2022-12-31T12:19:05;2.22;;;1.40;;
6475;SDS011;3271;51.910;5.840;2022-12-31T12:21:31;4.95;;;1.20;;
6475;SDS011;3271;51.910;5.840;2022-12-31T12:24:02;3.42;;;1.70;;
6475;SDS011;3271;51.910;5.840;2022-12-31T12:26:32;4.32;;;1.73;;
6475;SDS011;3271;51.910;5.840;2022-12-31T12:28:59;2.78;;;1.55;;
6475;SDS011;3271;51.910;5.840;2022-12-31T12:31:33;4.82;;;2.33;;
6475;SDS011;3271;51.910;5.840;2022-12-31T12:34:00;3.03;;;1.58;;
6475;SDS011;3271;51.910;5.840;2022-12-31T12:36:25;3.97;;;1.95;;
6475;SDS011;3271;51.910;5.840;2022-12-31T12:39:04;4.65;;;1.90;;
6475;SDS011;3271;51.910;5.840;2022-12-31T12:41:30;5.35;;;1.55;;
6475;SDS011;3271;51.910;5.840;2022-12-31T12:44:03;3.33;;;1.55;;
6475;SDS011;3271;51.910;5.840;2022-12-31T12:46:34;5.50;;;2.08;;
6475;SDS011;3271;51.910;5.840;2022-12-31T12:49:00;2.63;;;1.95;;
6475;SDS011;3271;51.910;5.840;2022-12-31T12:56:45;2.25;;;1.38;;
6475;SDS011;3271;51.910;5.840;2022-12-31T13:01:47;2.90;;;1.33;;
6475;SDS011;3271;51.910;5.840;2022-12-31T13:17:31;2.67;;;1.52;;
6475;SDS011;3271;51.910;5.840;2022-12-31T13:20:05;2.38;;;1.35;;
6475;SDS011;3271;51.910;5.840;2022-12-31T13:22:37;1.65;;;1.23;;
6475;SDS011;3271;51.910;5.840;2022-12-31T13:27:41;2.72;;;1.52;;
6475;SDS011;3271;51.910;5.840;2022-12-31T13:30:13;2.45;;;1.35;;
6475;SDS011;3271;51.910;5.840;2022-12-31T13:32:41;5.20;;;1.73;;
6475;SDS011;3271;51.910;5.840;2022-12-31T13:35:22;4.45;;;1.60;;
6475;SDS011;3271;51.910;5.840;2022-12-31T13:37:50;4.22;;;1.88;;
6475;SDS011;3271;51.910;5.840;2022-12-31T13:40:20;2.80;;;2.15;;
6475;SDS011;3271;51.910;5.840;2022-12-31T13:43:05;2.13;;;1.27;;
6475;SDS011;3271;51.910;5.840;2022-12-31T13:45:35;4.13;;;1.75;;
6475;SDS011;3271;51.910;5.840;2022-12-31T13:48:09;2.65;;;1.40;;
6475;SDS011;3271;51.910;5.840;2022-12-31T13:50:39;2.88;;;1.48;;
6475;SDS011;3271;51.910;5.840;2022-12-31T13:55:39;4.03;;;1.40;;
6475;SDS011;3271;51.910;5.840;2022-12-31T14:00:37;4.05;;;1.80;;
6475;SDS011;3271;51.910;5.840;2022-12-31T14:03:12;4.57;;;1.65;;
6475;SDS011;3271;51.910;5.840;2022-12-31T14:05:45;2.75;;;1.40;;
6475;SDS011;3271;51.910;5.840;2022-12-31T14:08:13;4.35;;;2.28;;
6475;SDS011;3271;51.910;5.840;2022-12-31T14:10:56;5.38;;;2.03;;
6475;SDS011;3271;51.910;5.840;2022-12-31T14:16:03;4.90;;;2.45;;
6475;SDS011;3271;51.910;5.840;2022-12-31T14:21:31;6.85;;;2.10;;
6475;SDS011;3271;51.910;5.840;2022-12-31T14:24:07;4.40;;;1.80;;
6475;SDS011;3271;51.910;5.840;2022-12-31T14:26:35;6.15;;;1.70;;
6475;SDS011;3271;51.910;5.840;2022-12-31T14:29:12;2.40;;;1.50;;
6475;SDS011;3271;51.910;5.840;2022-12-31T14:37:06;6.28;;;1.75;;
6475;SDS011;3271;51.910;5.840;2022-12-31T14:39:38;2.92;;;1.80;;
6475;SDS011;3271;51.910;5.840;2022-12-31T14:42:51;4.93;;;2.45;;
6475;SDS011;3271;51.910;5.840;2022-12-31T14:50:02;4.00;;;1.60;;
6475;SDS011;3271;51.910;5.840;2022-12-31T14:52:30;5.32;;;2.45;;
6475;SDS011;3271;51.910;5.840;2022-12-31T14:55:20;6.00;;;2.25;;
6475;SDS011;3271;51.910;5.840;2022-12-31T14:57:46;8.98;;;1.95;;
6475;SDS011;3271;51.910;5.840;2022-12-31T15:05:24;3.58;;;2.13;;
6475;SDS011;3271;51.910;5.840;2022-12-31T15:07:53;4.38;;;2.30;;
6475;SDS011;3271;51.910;5.840;2022-12-31T15:10:45;7.50;;;2.17;;
6475;SDS011;3271;51.910;5.840;2022-12-31T15:13:16;4.75;;;2.17;;
6475;SDS011;3271;51.910;5.840;2022-12-31T15:18:37;6.53;;;2.90;;
6475;SDS011;3271;51.910;5.840;2022-12-31T15:23:38;10.38;;;2.72;;
6475;SDS011;3271;51.910;5.840;2022-12-31T15:31:27;6.53;;;2.20;;
6475;SDS011;3271;51.910;5.840;2022-12-31T15:34:01;4.28;;;2.50;;
6475;SDS011;3271;51.910;5.840;2022-12-31T15:36:28;10.40;;;7.35;;
6475;SDS011;3271;51.910;5.840;2022-12-31T15:41:42;3.72;;;2.20;;
6475;SDS011;3271;51.910;5.840;2022-12-31T15:47:07;5.47;;;2.78;;
6475;SDS011;3271;51.910;5.840;2022-12-31T15:49:36;21.45;;;13.75;;
6475;SDS011;3271;51.910;5.840;2022-12-31T15:52:29;7.22;;;4.03;;
6475;SDS011;3271;51.910;5.840;2022-12-31T15:54:52;21.38;;;19.55;;
6475;SDS011;3271;51.910;5.840;2022-12-31T15:57:22;5.60;;;2.95;;
6475;SDS011;3271;51.910;5.840;2022-12-31T15:59:56;6.05;;;4.55;;
6475;SDS011;3271;51.910;5.840;2022-12-31T16:02:23;8.13;;;6.25;;
6475;SDS011;3271;51.910;5.840;2022-12-31T16:04:50;16.63;;;12.10;;
6475;SDS011;3271;51.910;5.840;2022-12-31T16:07:17;33.38;;;22.52;;
6475;SDS011;3271;51.910;5.840;2022-12-31T16:09:46;8.50;;;4.97;;
6475;SDS011;3271;51.910;5.840;2022-12-31T16:12:23;9.18;;;5.25;;
6475;SDS011;3271;51.910;5.840;2022-12-31T16:14:51;20.13;;;16.05;;
6475;SDS011;3271;51.910;5.840;2022-12-31T16:17:22;9.40;;;4.93;;
6475;SDS011;3271;51.910;5.840;2022-12-31T16:19:50;11.30;;;8.00;;
6475;SDS011;3271;51.910;5.840;2022-12-31T16:22:17;5.82;;;3.25;;
6475;SDS011;3271;51.910;5.840;2022-12-31T16:24:43;7.78;;;2.95;;
6475;SDS011;3271;51.910;5.840;2022-12-31T16:27:12;5.82;;;3.05;;
6475;SDS011;3271;51.910;5.840;2022-12-31T16:29:43;7.35;;;3.33;;
6475;SDS011;3271;51.910;5.840;2022-12-31T16:32:11;6.57;;;3.58;;
6475;SDS011;3271;51.910;5.840;2022-12-31T16:34:38;7.15;;;3.35;;
6475;SDS011;3271;51.910;5.840;2022-12-31T16:37:06;6.40;;;3.15;;
6475;SDS011;3271;51.910;5.840;2022-12-31T16:39:40;6.20;;;3.45;;
6475;SDS011;3271;51.910;5.840;2022-12-31T16:42:18;5.28;;;2.83;;
6475;SDS011;3271;51.910;5.840;2022-12-31T16:44:48;5.97;;;3.53;;
6475;SDS011;3271;51.910;5.840;2022-12-31T16:49:48;5.32;;;2.75;;
6475;SDS011;3271;51.910;5.840;2022-12-31T16:55:14;8.43;;;4.65;;
6475;SDS011;3271;51.910;5.840;2022-12-31T16:57:42;6.60;;;3.30;;
6475;SDS011;3271;51.910;5.840;2022-12-31T17:00:14;10.77;;;3.03;;
6475;SDS011;3271;51.910;5.840;2022-12-31T17:02:41;4.10;;;2.75;;
6475;SDS011;3271;51.910;5.840;2022-12-31T17:05:18;8.40;;;3.90;;
6475;SDS011;3271;51.910;5.840;2022-12-31T17:07:44;5.80;;;3.50;;
6475;SDS011;3271;51.910;5.840;2022-12-31T17:10:23;4.60;;;3.28;;
6475;SDS011;3271;51.910;5.840;2022-12-31T17:12:56;5.32;;;3.55;;
6475;SDS011;3271;51.910;5.840;2022-12-31T17:15:26;5.38;;;4.72;;
6475;SDS011;3271;51.910;5.840;2022-12-31T17:17:55;6.30;;;4.60;;
6475;SDS011;3271;51.910;5.840;2022-12-31T17:20:23;7.50;;;4.22;;
6475;SDS011;3271;51.910;5.840;2022-12-31T17:22:49;9.70;;;6.72;;
6475;SDS011;3271;51.910;5.840;2022-12-31T17:25:24;11.60;;;7.00;;
6475;SDS011;3271;51.910;5.840;2022-12-31T17:27:58;14.07;;;9.27;;
6475;SDS011;3271;51.910;5.840;2022-12-31T17:35:26;7.78;;;4.68;;
6475;SDS011;3271;51.910;5.840;2022-12-31T17:37:53;7.55;;;5.85;;
6475;SDS011;3271;51.910;5.840;2022-12-31T17:40:35;10.98;;;6.78;;
6475;SDS011;3271;51.910;5.840;2022-12-31T17:43:01;7.90;;;6.07;;
6475;SDS011;3271;51.910;5.840;2022-12-31T17:45:27;6.63;;;3.95;;
6475;SDS011;3271;51.910;5.840;2022-12-31T17:47:53;9.30;;;5.32;;
6475;SDS011;3271;51.910;5.840;2022-12-31T17:50:24;8.32;;;6.20;;
6475;SDS011;3271;51.910;5.840;2022-12-31T17:52:51;8.93;;;5.72;;
6475;SDS011;3271;51.910;5.840;2022-12-31T17:55:17;11.77;;;5.78;;
6475;SDS011;3271;51.910;5.840;2022-12-31T17:57:46;10.35;;;6.95;;
6475;SDS011;3271;51.910;5.840;2022-12-31T18:00:22;9.07;;;5.03;;
6475;SDS011;3271;51.910;5.840;2022-12-31T18:02:48;14.15;;;11.15;;
6475;SDS011;3271;51.910;5.840;2022-12-31T18:05:15;9.45;;;6.40;;
6475;SDS011;3271;51.910;5.840;2022-12-31T18:07:41;9.63;;;6.93;;
6475;SDS011;3271;51.910;5.840;2022-12-31T18:10:07;4.88;;;4.35;;
6475;SDS011;3271;51.910;5.840;2022-12-31T18:12:33;6.53;;;4.60;;
6475;SDS011;3271;51.910;5.840;2022-12-31T18:14:59;8.98;;;5.43;;
6475;SDS011;3271;51.910;5.840;2022-12-31T18:17:26;5.93;;;3.75;;
6475;SDS011;3271;51.910;5.840;2022-12-31T18:19:52;6.18;;;3.80;;
6475;SDS011;3271;51.910;5.840;2022-12-31T18:22:18;8.25;;;5.57;;
6475;SDS011;3271;51.910;5.840;2022-12-31T18:24:45;4.70;;;3.60;;
6475;SDS011;3271;51.910;5.840;2022-12-31T18:27:14;6.07;;;3.63;;
6475;SDS011;3271;51.910;5.840;2022-12-31T18:29:41;4.28;;;3.63;;
6475;SDS011;3271;51.910;5.840;2022-12-31T18:32:21;5.63;;;4.10;;
6475;SDS011;3271;51.910;5.840;2022-12-31T18:34:48;6.63;;;4.68;;
6475;SDS011;3271;51.910;5.840;2022-12-31T18:37:14;4.53;;;4.07;;
6475;SDS011;3271;51.910;5.840;2022-12-31T18:39:40;5.28;;;3.72;;
6475;SDS011;3271;51.910;5.840;2022-12-31T18:42:06;4.70;;;4.10;;
6475;SDS011;3271;51.910;5.840;2022-12-31T18:44:35;5.53;;;4.60;;
6475;SDS011;3271;51.910;5.840;2022-12-31T18:47:01;6.47;;;4.05;;
6475;SDS011;3271;51.910;5.840;2022-12-31T18:49:27;4.90;;;4.20;;
6475;SDS011;3271;51.910;5.840;2022-12-31T18:51:53;8.90;;;4.93;;
6475;SDS011;3271;51.910;5.840;2022-12-31T18:54:19;7.25;;;4.45;;
6475;SDS011;3271;51.910;5.840;2022-12-31T18:56:45;7.25;;;4.70;;
6475;SDS011;3271;51.910;5.840;2022-12-31T18:59:11;6.20;;;4.10;;
6475;SDS011;3271;51.910;5.840;2022-12-31T19:01:39;6.15;;;3.70;;
6475;SDS011;3271;51.910;5.840;2022-12-31T19:04:10;6.80;;;4.28;;
6475;SDS011;3271;51.910;5.840;2022-12-31T19:06:40;8.50;;;4.22;;
6475;SDS011;3271;51.910;5.840;2022-12-31T19:09:06;6.93;;;3.78;;
6475;SDS011;3271;51.910;5.840;2022-12-31T19:11:32;5.57;;;4.30;;
6475;SDS011;3271;51.910;5.840;2022-12-31T19:13:59;5.13;;;4.20;;
6475;SDS011;3271;51.910;5.840;2022-12-31T19:16:25;5.32;;;3.78;;
6475;SDS011;3271;51.910;5.840;2022-12-31T19:18:51;6.75;;;3.72;;
6475;SDS011;3271;51.910;5.840;2022-12-31T19:21:18;7.05;;;4.32;;
6475;SDS011;3271;51.910;5.840;2022-12-31T19:23:46;8.90;;;4.22;;
6475;SDS011;3271;51.910;5.840;2022-12-31T19:26:15;7.68;;;3.65;;